sensor_id;sensor_type;location;lat;lon;timestamp;pressure;altitude;pressure_sealevel;temperature;humidity
23677;BME280;31493;49.058;12.190;2023-04-16T00:00:38;95745.53;;;6.09;100.00
23677;BME280;31493;49.058;12.190;2023-04-16T00:03:05;95748.69;;;5.99;100.00
23677;BME280;31493;49.058;12.190;2023-04-16T00:05:32;95745.53;;;6.09;100.00
23677;BME280;31493;49.058;12.190;2023-04-16T00:07:59;95740.53;;;6.06;100.00
23677;BME280;31493;49.058;12.190;2023-04-16T00:10:26;95732.59;;;6.11;100.00
23677;BME280;31493;49.058;12.190;2023-04-16T00:12:55;95746.16;;;6.13;100.00
23677;BME280;31493;49.058;12.190;2023-04-16T00:15:22;95748.91;;;6.10;100.00
23677;BME280;31493;49.058;12.190;2023-04-16T00:17:49;95754.06;;;6.10;100.00
23677;BME280;31493;49.058;12.190;2023-04-16T00:20:16;95740.69;;;6.19;100.00
23677;BME280;31493;49.058;12.190;2023-04-16T00:22:44;95753.88;;;6.13;100.00
23677;BME280;31493;49.058;12.190;2023-04-16T00:25:12;95748.09;;;6.09;100.00
23677;BME280;31493;49.058;12.190;2023-04-16T00:27:39;95755.31;;;6.03;100.00
23677;BME280;31493;49.058;12.190;2023-04-16T00:30:08;95742.03;;;6.10;100.00
23677;BME280;31493;49.058;12.190;2023-04-16T00:32:35;95742.63;;;6.15;100.00
23677;BME280;31493;49.058;12.190;2023-04-16T00:35:02;95741.44;;;6.05;100.00
23677;BME280;31493;49.058;12.190;2023-04-16T00:37:29;95743.38;;;6.02;100.00
23677;BME280;31493;49.058;12.190;2023-04-16T00:39:56;95739.81;;;6.04;100.00
23677;BME280;31493;49.058;12.190;2023-04-16T00:42:23;95745.03;;;6.03;100.00
23677;BME280;31493;49.058;12.190;2023-04-16T00:44:50;95744.03;;;6.05;100.00
23677;BME280;31493;49.058;12.190;2023-04-16T00:47:20;95745.69;;;6.06;100.00
23677;BME280;31493;49.058;12.190;2023-04-16T00:49:47;95741.53;;;6.04;100.00
23677;BME280;31493;49.058;12.190;2023-04-16T00:52:15;95735.59;;;6.03;100.00
23677;BME280;31493;49.058;12.190;2023-04-16T00:54:42;95744.75;;;6.07;100.00
23677;BME280;31493;49.058;12.190;2023-04-16T00:57:09;95749.16;;;6.05;100.00
23677;BME280;31493;49.058;12.190;2023-04-16T00:59:36;95753.47;;;6.05;100.00
23677;BME280;31493;49.058;12.190;2023-04-16T01:02:03;95742.38;;;6.04;100.00
23677;BME280;31493;49.058;12.190;2023-04-16T01:04:31;95745.44;;;6.11;100.00
23677;BME280;31493;49.058;12.190;2023-04-16T01:06:59;95744.69;;;6.09;100.00
23677;BME280;31493;49.058;12.190;2023-04-16T01:09:26;95749.06;;;6.07;100.00
23677;BME280;31493;49.058;12.190;2023-04-16T01:11:53;95752.47;;;6.07;100.00
23677;BME280;31493;49.058;12.190;2023-04-16T01:14:20;95745.63;;;6.08;100.00
23677;BME280;31493;49.058;12.190;2023-04-16T01:16:47;95737.03;;;6.07;100.00
23677;BME280;31493;49.058;12.190;2023-04-16T01:19:14;95749.25;;;6.04;100.00
23677;BME280;31493;49.058;12.190;2023-04-16T01:21:42;95753.47;;;6.05;100.00
23677;BME280;31493;49.058;12.190;2023-04-16T01:24:09;95752.75;;;6.03;100.00
23677;BME280;31493;49.058;12.190;2023-04-16T01:26:36;95760.50;;;6.01;100.00
23677;BME280;31493;49.058;12.190;2023-04-16T01:29:03;95763.09;;;6.01;100.00
23677;BME280;31493;49.058;12.190;2023-04-16T01:31:30;95758.81;;;6.02;100.00
23677;BME280;31493;49.058;12.190;2023-04-16T01:33:57;95742.53;;;6.01;100.00
23677;BME280;31493;49.058;12.190;2023-04-16T01:36:24;95750.09;;;6.04;100.00
23677;BME280;31493;49.058;12.190;2023-04-16T01:38:53;95762.84;;;6.06;100.00
23677;BME280;31493;49.058;12.190;2023-04-16T01:41:20;95757.78;;;6.04;100.00
23677;BME280;31493;49.058;12.190;2023-04-16T01:43:47;95757.13;;;6.01;100.00
23677;BME280;31493;49.058;12.190;2023-04-16T01:46:20;95759.34;;;6.07;100.00
23677;BME280;31493;49.058;12.190;2023-04-16T01:48:49;95762.94;;;6.04;100.00
23677;BME280;31493;49.058;12.190;2023-04-16T01:51:19;95766.72;;;6.13;100.00
23677;BME280;31493;49.058;12.190;2023-04-16T01:53:46;95762.50;;;6.12;100.00
23677;BME280;31493;49.058;12.190;2023-04-16T01:56:15;95765.75;;;6.15;100.00
23677;BME280;31493;49.058;12.190;2023-04-16T01:58:42;95784.22;;;6.22;100.00
23677;BME280;31493;49.058;12.190;2023-04-16T02:01:10;95767.16;;;6.21;100.00
23677;BME280;31493;49.058;12.190;2023-04-16T02:03:38;95782.38;;;6.24;100.00
23677;BME280;31493;49.058;12.190;2023-04-16T02:06:05;95768.41;;;6.14;100.00
23677;BME280;31493;49.058;12.190;2023-04-16T02:08:32;95777.44;;;6.21;100.00
23677;BME280;31493;49.058;12.190;2023-04-16T02:10:59;95766.22;;;6.06;100.00
23677;BME280;31493;49.058;12.190;2023-04-16T02:13:28;95776.13;;;6.14;100.00
23677;BME280;31493;49.058;12.190;2023-04-16T02:15:55;95783.59;;;6.03;100.00
23677;BME280;31493;49.058;12.190;2023-04-16T02:18:22;95787.13;;;6.00;100.00
23677;BME280;31493;49.058;12.190;2023-04-16T02:20:49;95780.69;;;6.09;100.00
23677;BME280;31493;49.058;12.190;2023-04-16T02:23:16;95781.41;;;6.11;100.00
23677;BME280;31493;49.058;12.190;2023-04-16T02:25:45;95773.84;;;6.24;100.00
23677;BME280;31493;49.058;12.190;2023-04-16T02:28:15;95785.06;;;6.07;100.00
23677;BME280;31493;49.058;12.190;2023-04-16T02:30:43;95784.56;;;6.16;100.00
23677;BME280;31493;49.058;12.190;2023-04-16T02:33:11;95785.47;;;5.99;100.00
23677;BME280;31493;49.058;12.190;2023-04-16T02:35:38;95787.91;;;6.02;100.00
23677;BME280;31493;49.058;12.190;2023-04-16T02:38:06;95793.53;;;6.09;100.00
23677;BME280;31493;49.058;12.190;2023-04-16T02:40:34;95786.47;;;5.97;100.00
23677;BME280;31493;49.058;12.190;2023-04-16T02:43:01;95793.19;;;5.99;100.00
23677;BME280;31493;49.058;12.190;2023-04-16T02:45:28;95794.44;;;6.08;100.00
23677;BME280;31493;49.058;12.190;2023-04-16T02:47:57;95794.59;;;6.05;100.00
23677;BME280;31493;49.058;12.190;2023-04-16T02:50:25;95799.41;;;6.11;100.00
23677;BME280;31493;49.058;12.190;2023-04-16T02:52:52;95792.38;;;6.14;100.00
23677;BME280;31493;49.058;12.190;2023-04-16T02:55:19;95800.22;;;6.11;100.00
23677;BME280;31493;49.058;12.190;2023-04-16T02:57:46;95793.53;;;6.09;100.00
23677;BME280;31493;49.058;12.190;2023-04-16T03:00:13;95792.91;;;6.19;100.00
23677;BME280;31493;49.058;12.190;2023-04-16T03:02:41;95795.75;;;6.15;100.00
23677;BME280;31493;49.058;12.190;2023-04-16T03:05:09;95796.41;;;6.18;100.00
23677;BME280;31493;49.058;12.190;2023-04-16T03:07:37;95798.31;;;6.31;100.00
23677;BME280;31493;49.058;12.190;2023-04-16T03:10:06;95798.56;;;6.10;100.00
23677;BME280;31493;49.058;12.190;2023-04-16T03:12:33;95796.69;;;6.14;100.00
23677;BME280;31493;49.058;12.190;2023-04-16T03:15:01;95805.38;;;6.27;100.00
23677;BME280;31493;49.058;12.190;2023-04-16T03:17:28;95801.22;;;6.25;100.00
23677;BME280;31493;49.058;12.190;2023-04-16T03:19:55;95803.53;;;6.13;100.00
23677;BME280;31493;49.058;12.190;2023-04-16T03:22:23;95809.34;;;6.17;100.00
23677;BME280;31493;49.058;12.190;2023-04-16T03:24:50;95807.44;;;6.21;100.00
23677;BME280;31493;49.058;12.190;2023-04-16T03:27:17;95801.31;;;6.23;100.00
23677;BME280;31493;49.058;12.190;2023-04-16T03:29:44;95806.63;;;6.20;100.00
23677;BME280;31493;49.058;12.190;2023-04-16T03:32:11;95797.91;;;6.23;100.00
23677;BME280;31493;49.058;12.190;2023-04-16T03:34:38;95813.16;;;6.26;100.00
23677;BME280;31493;49.058;12.190;2023-04-16T03:37:05;95815.31;;;6.17;100.00
23677;BME280;31493;49.058;12.190;2023-04-16T03:39:37;95809.09;;;6.06;100.00
23677;BME280;31493;49.058;12.190;2023-04-16T03:42:05;95820.47;;;6.17;100.00
23677;BME280;31493;49.058;12.190;2023-04-16T03:44:32;95811.81;;;6.18;100.00
23677;BME280;31493;49.058;12.190;2023-04-16T03:46:59;95814.09;;;6.09;100.00
23677;BME280;31493;49.058;12.190;2023-04-16T03:49:26;95816.22;;;6.01;100.00
23677;BME280;31493;49.058;12.190;2023-04-16T03:51:53;95814.41;;;6.03;100.00
23677;BME280;31493;49.058;12.190;2023-04-16T03:54:20;95826.94;;;6.09;100.00
23677;BME280;31493;49.058;12.190;2023-04-16T03:56:48;95829.50;;;6.09;100.00
23677;BME280;31493;49.058;12.190;2023-04-16T03:59:16;95825.09;;;6.11;100.00
23677;BME280;31493;49.058;12.190;2023-04-16T04:01:43;95835.16;;;6.15;100.00
23677;BME280;31493;49.058;12.190;2023-04-16T04:04:10;95829.25;;;6.13;100.00
23677;BME280;31493;49.058;12.190;2023-04-16T04:06:37;95830.59;;;6.21;100.00
23677;BME280;31493;49.058;12.190;2023-04-16T04:09:04;95837.22;;;6.09;100.00
23677;BME280;31493;49.058;12.190;2023-04-16T04:11:31;95840.69;;;5.92;100.00
23677;BME280;31493;49.058;12.190;2023-04-16T04:14:00;95833.66;;;5.96;100.00
23677;BME280;31493;49.058;12.190;2023-04-16T04:16:27;95841.34;;;5.96;100.00
23677;BME280;31493;49.058;12.190;2023-04-16T04:18:54;95848.88;;;5.99;100.00
23677;BME280;31493;49.058;12.190;2023-04-16T04:21:21;95847.63;;;5.90;100.00
23677;BME280;31493;49.058;12.190;2023-04-16T04:23:48;95854.38;;;6.08;100.00
23677;BME280;31493;49.058;12.190;2023-04-16T04:26:15;95855.28;;;5.91;100.00
23677;BME280;31493;49.058;12.190;2023-04-16T04:28:42;95862.25;;;5.88;100.00
23677;BME280;31493;49.058;12.190;2023-04-16T04:31:10;95858.56;;;5.93;100.00
23677;BME280;31493;49.058;12.190;2023-04-16T04:33:37;95866.88;;;5.99;100.00
23677;BME280;31493;49.058;12.190;2023-04-16T04:36:05;95866.38;;;5.92;100.00
23677;BME280;31493;49.058;12.190;2023-04-16T04:38:32;95866.28;;;5.93;100.00
23677;BME280;31493;49.058;12.190;2023-04-16T04:40:59;95873.44;;;6.04;100.00
23677;BME280;31493;49.058;12.190;2023-04-16T04:43:26;95872.59;;;6.04;100.00
23677;BME280;31493;49.058;12.190;2023-04-16T04:45:53;95869.22;;;6.03;100.00
23677;BME280;31493;49.058;12.190;2023-04-16T04:48:22;95876.50;;;6.11;100.00
23677;BME280;31493;49.058;12.190;2023-04-16T04:50:51;95882.38;;;6.13;100.00
23677;BME280;31493;49.058;12.190;2023-04-16T04:53:18;95877.41;;;6.10;100.00
23677;BME280;31493;49.058;12.190;2023-04-16T04:55:46;95884.78;;;6.00;100.00
23677;BME280;31493;49.058;12.190;2023-04-16T04:58:13;95882.16;;;6.02;100.00
23677;BME280;31493;49.058;12.190;2023-04-16T05:00:40;95881.97;;;6.05;100.00
23677;BME280;31493;49.058;12.190;2023-04-16T05:03:09;95886.78;;;6.11;100.00
23677;BME280;31493;49.058;12.190;2023-04-16T05:05:38;95882.16;;;6.17;100.00
23677;BME280;31493;49.058;12.190;2023-04-16T05:08:05;95900.06;;;6.19;100.00
23677;BME280;31493;49.058;12.190;2023-04-16T05:10:32;95894.91;;;6.19;100.00
23677;BME280;31493;49.058;12.190;2023-04-16T05:12:59;95893.16;;;6.19;100.00
23677;BME280;31493;49.058;12.190;2023-04-16T05:15:26;95902.22;;;6.11;100.00
23677;BME280;31493;49.058;12.190;2023-04-16T05:17:53;95899.41;;;6.15;100.00
23677;BME280;31493;49.058;12.190;2023-04-16T05:20:21;95903.53;;;6.18;100.00
23677;BME280;31493;49.058;12.190;2023-04-16T05:22:51;95905.50;;;6.13;100.00
23677;BME280;31493;49.058;12.190;2023-04-16T05:25:20;95899.63;;;6.11;100.00
23677;BME280;31493;49.058;12.190;2023-04-16T05:27:47;95901.97;;;6.15;100.00
23677;BME280;31493;49.058;12.190;2023-04-16T05:30:14;95899.50;;;6.14;100.00
23677;BME280;31493;49.058;12.190;2023-04-16T05:32:41;95908.59;;;6.19;100.00
23677;BME280;31493;49.058;12.190;2023-04-16T05:35:08;95916.94;;;6.07;100.00
23677;BME280;31493;49.058;12.190;2023-04-16T05:37:35;95924.41;;;6.12;100.00
23677;BME280;31493;49.058;12.190;2023-04-16T05:40:05;95921.63;;;6.16;100.00
23677;BME280;31493;49.058;12.190;2023-04-16T05:42:32;95916.25;;;6.21;100.00
23677;BME280;31493;49.058;12.190;2023-04-16T05:45:01;95926.63;;;6.35;100.00
23677;BME280;31493;49.058;12.190;2023-04-16T05:47:28;95923.81;;;6.40;100.00
23677;BME280;31493;49.058;12.190;2023-04-16T05:49:55;95923.94;;;6.37;100.00
23677;BME280;31493;49.058;12.190;2023-04-16T05:52:22;95929.25;;;6.50;100.00
23677;BME280;31493;49.058;12.190;2023-04-16T05:54:49;95932.94;;;6.45;100.00
23677;BME280;31493;49.058;12.190;2023-04-16T05:57:17;95940.06;;;6.40;100.00
23677;BME280;31493;49.058;12.190;2023-04-16T05:59:44;95929.03;;;6.38;100.00
23677;BME280;31493;49.058;12.190;2023-04-16T06:02:11;95937.41;;;6.42;100.00
23677;BME280;31493;49.058;12.190;2023-04-16T06:04:38;95937.06;;;6.32;100.00
23677;BME280;31493;49.058;12.190;2023-04-16T06:07:05;95940.19;;;6.37;100.00
23677;BME280;31493;49.058;12.190;2023-04-16T06:09:32;95954.06;;;6.35;100.00
23677;BME280;31493;49.058;12.190;2023-04-16T06:11:59;95948.28;;;6.47;100.00
23677;BME280;31493;49.058;12.190;2023-04-16T06:14:28;95947.78;;;6.40;100.00
23677;BME280;31493;49.058;12.190;2023-04-16T06:16:55;95945.88;;;6.60;100.00
23677;BME280;31493;49.058;12.190;2023-04-16T06:19:22;95952.66;;;6.61;100.00
23677;BME280;31493;49.058;12.190;2023-04-16T06:21:49;95956.06;;;6.45;100.00
23677;BME280;31493;49.058;12.190;2023-04-16T06:24:16;95942.63;;;6.56;100.00
23677;BME280;31493;49.058;12.190;2023-04-16T06:26:43;95947.94;;;6.53;100.00
23677;BME280;31493;49.058;12.190;2023-04-16T06:29:10;95948.78;;;6.69;100.00
23677;BME280;31493;49.058;12.190;2023-04-16T06:31:39;95943.19;;;6.93;100.00
23677;BME280;31493;49.058;12.190;2023-04-16T06:34:07;95956.03;;;7.09;100.00
23677;BME280;31493;49.058;12.190;2023-04-16T06:36:35;95951.22;;;7.18;100.00
23677;BME280;31493;49.058;12.190;2023-04-16T06:39:02;95954.97;;;7.13;100.00
23677;BME280;31493;49.058;12.190;2023-04-16T06:41:29;95957.47;;;6.98;100.00
23677;BME280;31493;49.058;12.190;2023-04-16T06:43:56;95948.72;;;7.17;100.00
23677;BME280;31493;49.058;12.190;2023-04-16T06:46:23;95956.38;;;7.18;100.00
23677;BME280;31493;49.058;12.190;2023-04-16T06:48:52;95956.28;;;7.04;100.00
23677;BME280;31493;49.058;12.190;2023-04-16T06:51:19;95959.00;;;7.17;100.00
23677;BME280;31493;49.058;12.190;2023-04-16T06:53:46;95965.66;;;7.05;100.00
23677;BME280;31493;49.058;12.190;2023-04-16T06:56:14;95947.97;;;7.15;100.00
23677;BME280;31493;49.058;12.190;2023-04-16T06:58:41;95964.38;;;7.28;100.00
23677;BME280;31493;49.058;12.190;2023-04-16T07:01:08;95958.22;;;7.61;100.00
23677;BME280;31493;49.058;12.190;2023-04-16T07:03:35;95947.41;;;7.70;100.00
23677;BME280;31493;49.058;12.190;2023-04-16T07:06:03;95964.03;;;7.64;100.00
23677;BME280;31493;49.058;12.190;2023-04-16T07:08:31;95960.44;;;7.67;100.00
23677;BME280;31493;49.058;12.190;2023-04-16T07:10:58;95968.00;;;7.70;100.00
23677;BME280;31493;49.058;12.190;2023-04-16T07:13:25;95973.63;;;7.62;100.00
23677;BME280;31493;49.058;12.190;2023-04-16T07:15:52;95969.09;;;7.66;100.00
23677;BME280;31493;49.058;12.190;2023-04-16T07:18:19;95964.50;;;7.71;100.00
23677;BME280;31493;49.058;12.190;2023-04-16T07:20:47;95967.75;;;7.74;100.00
23677;BME280;31493;49.058;12.190;2023-04-16T07:23:15;95961.78;;;7.74;100.00
23677;BME280;31493;49.058;12.190;2023-04-16T07:25:42;95973.28;;;7.82;100.00
23677;BME280;31493;49.058;12.190;2023-04-16T07:28:09;95973.66;;;7.91;100.00
23677;BME280;31493;49.058;12.190;2023-04-16T07:30:36;95976.69;;;7.97;100.00
23677;BME280;31493;49.058;12.190;2023-04-16T07:33:06;95971.72;;;8.08;100.00
23677;BME280;31493;49.058;12.190;2023-04-16T07:35:33;95973.13;;;8.14;100.00
23677;BME280;31493;49.058;12.190;2023-04-16T07:38:00;95974.88;;;8.14;100.00
23677;BME280;31493;49.058;12.190;2023-04-16T07:40:29;95988.06;;;8.23;100.00
23677;BME280;31493;49.058;12.190;2023-04-16T07:42:56;95976.16;;;8.06;100.00
23677;BME280;31493;49.058;12.190;2023-04-16T07:45:23;95981.41;;;8.05;100.00
23677;BME280;31493;49.058;12.190;2023-04-16T07:47:50;95978.00;;;8.04;100.00
23677;BME280;31493;49.058;12.190;2023-04-16T07:50:19;95979.19;;;8.27;100.00
23677;BME280;31493;49.058;12.190;2023-04-16T07:52:46;95984.28;;;8.29;100.00
23677;BME280;31493;49.058;12.190;2023-04-16T07:55:13;95986.75;;;8.30;100.00
23677;BME280;31493;49.058;12.190;2023-04-16T07:57:41;95991.81;;;8.32;100.00
23677;BME280;31493;49.058;12.190;2023-04-16T08:00:09;95993.28;;;8.22;100.00
23677;BME280;31493;49.058;12.190;2023-04-16T08:02:36;95990.09;;;8.18;100.00
23677;BME280;31493;49.058;12.190;2023-04-16T08:05:04;95999.38;;;8.21;100.00
23677;BME280;31493;49.058;12.190;2023-04-16T08:07:31;95993.22;;;8.23;100.00
23677;BME280;31493;49.058;12.190;2023-04-16T08:09:58;96002.16;;;8.18;100.00
23677;BME280;31493;49.058;12.190;2023-04-16T08:12:25;96001.84;;;8.22;100.00
23677;BME280;31493;49.058;12.190;2023-04-16T08:14:53;96008.22;;;8.17;100.00
23677;BME280;31493;49.058;12.190;2023-04-16T08:17:20;96002.28;;;7.86;100.00
23677;BME280;31493;49.058;12.190;2023-04-16T08:19:47;96007.97;;;7.91;100.00
23677;BME280;31493;49.058;12.190;2023-04-16T08:22:15;96016.97;;;8.14;100.00
23677;BME280;31493;49.058;12.190;2023-04-16T08:24:42;96015.66;;;8.07;100.00
23677;BME280;31493;49.058;12.190;2023-04-16T08:27:09;96020.13;;;7.89;100.00
23677;BME280;31493;49.058;12.190;2023-04-16T08:29:37;96023.91;;;7.84;100.00
23677;BME280;31493;49.058;12.190;2023-04-16T08:32:05;96031.72;;;7.82;100.00
23677;BME280;31493;49.058;12.190;2023-04-16T08:34:34;96026.22;;;7.58;100.00
23677;BME280;31493;49.058;12.190;2023-04-16T08:37:01;96025.97;;;7.63;100.00
23677;BME280;31493;49.058;12.190;2023-04-16T08:39:28;96035.81;;;8.00;100.00
23677;BME280;31493;49.058;12.190;2023-04-16T08:41:55;96031.16;;;8.21;100.00
23677;BME280;31493;49.058;12.190;2023-04-16T08:44:25;96036.75;;;8.28;100.00
23677;BME280;31493;49.058;12.190;2023-04-16T08:46:54;96045.69;;;8.22;100.00
23677;BME280;31493;49.058;12.190;2023-04-16T08:49:25;96041.41;;;8.51;100.00
23677;BME280;31493;49.058;12.190;2023-04-16T08:51:53;96047.50;;;8.50;100.00
23677;BME280;31493;49.058;12.190;2023-04-16T08:54:33;96045.19;;;8.74;100.00
23677;BME280;31493;49.058;12.190;2023-04-16T08:57:05;96047.88;;;8.58;100.00
23677;BME280;31493;49.058;12.190;2023-04-16T08:59:33;96044.56;;;8.56;100.00
23677;BME280;31493;49.058;12.190;2023-04-16T09:02:00;96042.72;;;8.58;100.00
23677;BME280;31493;49.058;12.190;2023-04-16T09:04:30;96054.34;;;8.66;100.00
23677;BME280;31493;49.058;12.190;2023-04-16T09:06:58;96050.28;;;8.47;100.00
23677;BME280;31493;49.058;12.190;2023-04-16T09:09:25;96059.41;;;8.67;100.00
23677;BME280;31493;49.058;12.190;2023-04-16T09:11:52;96051.94;;;8.63;100.00
23677;BME280;31493;49.058;12.190;2023-04-16T09:14:19;96052.91;;;8.88;100.00
23677;BME280;31493;49.058;12.190;2023-04-16T09:16:47;96064.81;;;9.05;100.00
23677;BME280;31493;49.058;12.190;2023-04-16T09:19:14;96069.31;;;9.16;100.00
23677;BME280;31493;49.058;12.190;2023-04-16T09:21:45;96067.03;;;8.97;100.00
23677;BME280;31493;49.058;12.190;2023-04-16T09:24:18;96077.50;;;9.23;100.00
23677;BME280;31493;49.058;12.190;2023-04-16T09:26:47;96070.25;;;9.15;100.00
23677;BME280;31493;49.058;12.190;2023-04-16T09:29:32;96073.78;;;9.27;100.00
23677;BME280;31493;49.058;12.190;2023-04-16T09:32:01;96075.91;;;9.34;100.00
23677;BME280;31493;49.058;12.190;2023-04-16T09:34:28;96076.78;;;9.48;100.00
23677;BME280;31493;49.058;12.190;2023-04-16T09:40:33;96075.50;;;9.67;100.00
23677;BME280;31493;49.058;12.190;2023-04-16T09:43:09;96075.91;;;9.88;100.00
23677;BME280;31493;49.058;12.190;2023-04-16T09:45:48;96073.09;;;9.91;100.00
23677;BME280;31493;49.058;12.190;2023-04-16T09:48:19;96075.53;;;10.07;100.00
23677;BME280;31493;49.058;12.190;2023-04-16T09:50:53;96084.84;;;9.70;100.00
23677;BME280;31493;49.058;12.190;2023-04-16T09:53:23;96078.28;;;9.91;100.00
23677;BME280;31493;49.058;12.190;2023-04-16T09:55:52;96078.41;;;9.76;100.00
23677;BME280;31493;49.058;12.190;2023-04-16T09:58:22;96079.59;;;9.84;100.00
23677;BME280;31493;49.058;12.190;2023-04-16T10:00:54;96078.59;;;10.00;100.00
23677;BME280;31493;49.058;12.190;2023-04-16T10:03:28;96074.63;;;9.81;100.00
23677;BME280;31493;49.058;12.190;2023-04-16T10:05:59;96083.34;;;9.93;100.00
23677;BME280;31493;49.058;12.190;2023-04-16T10:08:48;96080.13;;;10.29;100.00
23677;BME280;31493;49.058;12.190;2023-04-16T10:11:18;96084.19;;;10.46;100.00
23677;BME280;31493;49.058;12.190;2023-04-16T10:13:45;96083.25;;;10.60;100.00
23677;BME280;31493;49.058;12.190;2023-04-16T10:16:12;96084.38;;;10.56;100.00
23677;BME280;31493;49.058;12.190;2023-04-16T10:18:42;96082.94;;;10.77;100.00
23677;BME280;31493;49.058;12.190;2023-04-16T10:21:10;96081.28;;;10.89;100.00
23677;BME280;31493;49.058;12.190;2023-04-16T10:23:38;96087.59;;;10.85;100.00
23677;BME280;31493;49.058;12.190;2023-04-16T10:26:05;96084.78;;;11.00;100.00
23677;BME280;31493;49.058;12.190;2023-04-16T10:28:33;96082.09;;;10.89;100.00
23677;BME280;31493;49.058;12.190;2023-04-16T10:31:02;96090.41;;;10.82;100.00
23677;BME280;31493;49.058;12.190;2023-04-16T10:33:31;96076.34;;;11.10;100.00
23677;BME280;31493;49.058;12.190;2023-04-16T10:36:09;96089.22;;;11.11;100.00
23677;BME280;31493;49.058;12.190;2023-04-16T10:38:37;96088.59;;;11.08;100.00
23677;BME280;31493;49.058;12.190;2023-04-16T10:41:06;96092.44;;;11.02;100.00
23677;BME280;31493;49.058;12.190;2023-04-16T10:43:38;96088.91;;;11.03;100.00
23677;BME280;31493;49.058;12.190;2023-04-16T10:46:29;96095.34;;;10.85;100.00
23677;BME280;31493;49.058;12.190;2023-04-16T10:49:00;96094.22;;;10.89;100.00
23677;BME280;31493;49.058;12.190;2023-04-16T10:51:28;96086.47;;;10.63;100.00
23677;BME280;31493;49.058;12.190;2023-04-16T10:53:57;96085.66;;;10.63;100.00
23677;BME280;31493;49.058;12.190;2023-04-16T10:56:31;96092.66;;;10.48;100.00
23677;BME280;31493;49.058;12.190;2023-04-16T10:59:00;96093.34;;;10.25;100.00
23677;BME280;31493;49.058;12.190;2023-04-16T11:01:30;96103.22;;;10.32;100.00
23677;BME280;31493;49.058;12.190;2023-04-16T11:03:59;96094.94;;;10.00;100.00
23677;BME280;31493;49.058;12.190;2023-04-16T11:06:27;96100.47;;;10.08;100.00
23677;BME280;31493;49.058;12.190;2023-04-16T11:08:54;96098.22;;;9.77;100.00
23677;BME280;31493;49.058;12.190;2023-04-16T11:11:22;96105.41;;;10.11;100.00
23677;BME280;31493;49.058;12.190;2023-04-16T11:13:53;96106.44;;;9.96;100.00
23677;BME280;31493;49.058;12.190;2023-04-16T11:16:23;96106.78;;;9.77;100.00
23677;BME280;31493;49.058;12.190;2023-04-16T11:18:50;96120.25;;;9.82;100.00
23677;BME280;31493;49.058;12.190;2023-04-16T11:21:18;96114.09;;;9.98;100.00
23677;BME280;31493;49.058;12.190;2023-04-16T11:23:49;96113.53;;;9.92;100.00
23677;BME280;31493;49.058;12.190;2023-04-16T11:26:24;96114.75;;;9.87;100.00
23677;BME280;31493;49.058;12.190;2023-04-16T11:28:52;96108.88;;;9.58;100.00
23677;BME280;31493;49.058;12.190;2023-04-16T11:31:19;96116.75;;;9.42;100.00
23677;BME280;31493;49.058;12.190;2023-04-16T11:33:49;96117.94;;;9.51;100.00
23677;BME280;31493;49.058;12.190;2023-04-16T11:36:16;96117.94;;;9.51;100.00
23677;BME280;31493;49.058;12.190;2023-04-16T11:38:44;96123.75;;;9.54;100.00
23677;BME280;31493;49.058;12.190;2023-04-16T11:41:18;96130.13;;;9.49;100.00
23677;BME280;31493;49.058;12.190;2023-04-16T11:43:46;96128.38;;;9.49;100.00
23677;BME280;31493;49.058;12.190;2023-04-16T11:46:13;96117.03;;;9.37;100.00
23677;BME280;31493;49.058;12.190;2023-04-16T11:48:50;96122.66;;;9.44;100.00
23677;BME280;31493;49.058;12.190;2023-04-16T11:51:17;96122.22;;;9.37;100.00
23677;BME280;31493;49.058;12.190;2023-04-16T11:53:50;96133.19;;;9.41;100.00
23677;BME280;31493;49.058;12.190;2023-04-16T11:56:24;96134.47;;;9.48;100.00
23677;BME280;31493;49.058;12.190;2023-04-16T11:59:05;96133.69;;;9.60;100.00
23677;BME280;31493;49.058;12.190;2023-04-16T12:01:34;96136.56;;;9.56;100.00
23677;BME280;31493;49.058;12.190;2023-04-16T12:04:03;96134.72;;;9.58;100.00
23677;BME280;31493;49.058;12.190;2023-04-16T12:06:30;96145.25;;;9.82;100.00
23677;BME280;31493;49.058;12.190;2023-04-16T12:08:57;96138.91;;;9.73;100.00
23677;BME280;31493;49.058;12.190;2023-04-16T12:11:37;96129.66;;;9.83;100.00
23677;BME280;31493;49.058;12.190;2023-04-16T12:14:08;96135.94;;;9.79;100.00
23677;BME280;31493;49.058;12.190;2023-04-16T12:16:36;96141.22;;;9.78;100.00
23677;BME280;31493;49.058;12.190;2023-04-16T12:19:04;96136.81;;;9.92;100.00
23677;BME280;31493;49.058;12.190;2023-04-16T12:21:38;96137.69;;;10.06;100.00
23677;BME280;31493;49.058;12.190;2023-04-16T12:24:06;96141.28;;;9.49;100.00
23677;BME280;31493;49.058;12.190;2023-04-16T12:26:38;96147.63;;;9.17;100.00
23677;BME280;31493;49.058;12.190;2023-04-16T12:29:16;96136.56;;;8.86;100.00
23677;BME280;31493;49.058;12.190;2023-04-16T12:31:44;96141.31;;;8.64;100.00
23677;BME280;31493;49.058;12.190;2023-04-16T12:34:13;96142.25;;;8.48;100.00
23677;BME280;31493;49.058;12.190;2023-04-16T12:36:40;96138.47;;;8.54;100.00
23677;BME280;31493;49.058;12.190;2023-04-16T12:39:08;96142.16;;;8.64;100.00
23677;BME280;31493;49.058;12.190;2023-04-16T12:41:37;96140.91;;;8.85;100.00
23677;BME280;31493;49.058;12.190;2023-04-16T12:44:06;96139.88;;;8.74;100.00
23677;BME280;31493;49.058;12.190;2023-04-16T12:46:34;96134.63;;;8.75;100.00
23677;BME280;31493;49.058;12.190;2023-04-16T12:49:02;96132.22;;;9.01;100.00
23677;BME280;31493;49.058;12.190;2023-04-16T12:51:30;96136.94;;;9.08;100.00
23677;BME280;31493;49.058;12.190;2023-04-16T12:53:58;96136.41;;;9.45;100.00
23677;BME280;31493;49.058;12.190;2023-04-16T12:56:29;96133.47;;;9.36;100.00
23677;BME280;31493;49.058;12.190;2023-04-16T12:58:56;96141.44;;;9.19;100.00